createdAt,value
2022-08-29T00:04:33.061Z,4.90
2022-08-29T00:09:35.017Z,4.63
2022-08-29T00:14:36.898Z,4.45
2022-08-29T00:19:38.847Z,4.55
2022-08-29T00:24:41.000Z,4.47
2022-08-29T00:29:42.738Z,3.50
2022-08-29T00:34:44.421Z,4.03
2022-08-29T00:39:46.065Z,4.40
2022-08-29T00:44:47.805Z,3.75
2022-08-29T00:49:52.815Z,3.83
2022-08-29T00:54:56.493Z,5.18
2022-08-29T00:59:59.050Z,4.32
2022-08-29T01:05:00.858Z,3.95
2022-08-29T01:10:13.526Z,4.35
2022-08-29T01:15:15.567Z,3.55
2022-08-29T01:20:25.495Z,4.28
2022-08-29T01:25:33.756Z,3.75
2022-08-29T01:30:35.599Z,4.13
2022-08-29T01:35:37.262Z,3.80
2022-08-29T01:40:39.006Z,4.00
2022-08-29T01:45:41.224Z,3.80
2022-08-29T01:50:43.158Z,3.92
2022-08-29T01:55:44.835Z,3.80
2022-08-29T02:00:47.162Z,4.47
2022-08-29T02:05:48.866Z,3.72
2022-08-29T02:10:50.516Z,4.35
2022-08-29T02:15:52.413Z,5.25
2022-08-29T02:20:54.070Z,3.80
2022-08-29T02:25:55.705Z,5.47
2022-08-29T02:30:57.638Z,4.68
2022-08-29T02:35:59.639Z,4.15
2022-08-29T02:41:03.021Z,4.78
2022-08-29T02:46:05.352Z,4.82
2022-08-29T02:51:06.988Z,4.00
2022-08-29T02:56:09.899Z,4.20
2022-08-29T03:01:17.615Z,4.38
2022-08-29T03:06:20.575Z,5.68
2022-08-29T03:11:23.369Z,4.45
2022-08-29T03:16:26.443Z,4.60
2022-08-29T03:21:28.607Z,4.25
2022-08-29T03:26:30.261Z,4.70
2022-08-29T03:31:32.581Z,4.60
2022-08-29T03:36:34.697Z,4.60
2022-08-29T03:41:36.323Z,4.82
2022-08-29T03:46:39.494Z,3.85
2022-08-29T03:51:42.090Z,5.03
2022-08-29T03:56:43.854Z,5.20
2022-08-29T04:01:48.273Z,5.03
2022-08-29T04:06:50.004Z,5.47
2022-08-29T04:11:51.647Z,4.53
2022-08-29T04:16:53.296Z,5.13
2022-08-29T04:21:54.959Z,5.65
2022-08-29T04:26:57.059Z,4.82
2022-08-29T04:31:58.736Z,4.80
2022-08-29T04:37:00.416Z,5.55
2022-08-29T04:42:02.052Z,5.47
2022-08-29T04:47:03.778Z,5.07
2022-08-29T04:52:05.486Z,6.60
2022-08-29T04:57:07.712Z,4.70
2022-08-29T05:02:09.436Z,4.45
2022-08-29T05:07:11.100Z,5.05
2022-08-29T05:12:12.722Z,3.83
2022-08-29T05:17:14.617Z,4.53
2022-08-29T05:22:17.883Z,4.47
2022-08-29T05:27:22.093Z,4.45
2022-08-29T05:32:24.725Z,4.05
2022-08-29T05:37:26.614Z,5.03
2022-08-29T05:42:28.525Z,4.50
2022-08-29T05:47:31.533Z,4.00
2022-08-29T05:52:34.146Z,4.32
2022-08-29T05:57:35.813Z,4.13
2022-08-29T06:02:37.523Z,3.72
2022-08-29T06:07:39.259Z,4.97
2022-08-29T06:12:40.918Z,3.75
2022-08-29T06:17:42.602Z,4.15
2022-08-29T06:22:44.257Z,4.55
2022-08-29T06:27:45.919Z,4.72
2022-08-29T06:32:47.741Z,4.25
2022-08-29T06:37:49.380Z,3.83
2022-08-29T06:42:51.073Z,4.10
2022-08-29T06:47:52.815Z,4.15
2022-08-29T06:52:55.666Z,4.60
2022-08-29T06:57:57.462Z,4.15
2022-08-29T07:02:59.168Z,5.18
2022-08-29T07:08:01.035Z,4.68
2022-08-29T07:13:02.768Z,4.60
2022-08-29T07:18:04.625Z,5.03
2022-08-29T07:23:08.132Z,5.18
2022-08-29T07:28:10.959Z,4.82
2022-08-29T07:33:13.024Z,5.32
2022-08-29T07:38:14.760Z,4.95
2022-08-29T07:43:20.004Z,4.43
2022-08-29T07:48:24.138Z,4.28
2022-08-29T07:53:25.969Z,5.30
2022-08-29T07:58:27.613Z,5.28
2022-08-29T08:03:29.477Z,4.40
2022-08-29T08:08:31.464Z,4.85
2022-08-29T08:13:36.778Z,7.40
2022-08-29T08:18:39.942Z,4.97
2022-08-29T08:23:42.525Z,5.65
2022-08-29T08:28:45.140Z,4.75
2022-08-29T08:33:47.317Z,4.60
2022-08-29T08:38:50.506Z,4.85
2022-08-29T08:43:55.561Z,5.63
2022-08-29T08:49:00.580Z,4.82
2022-08-29T08:54:07.554Z,5.22
2022-08-29T08:59:31.804Z,4.30
2022-08-29T09:04:49.245Z,5.70
2022-08-29T09:10:23.788Z,5.32
2022-08-29T09:15:33.346Z,5.18
2022-08-29T09:20:40.557Z,5.35
2022-08-29T09:25:44.908Z,4.78
2022-08-29T09:31:27.710Z,5.18
2022-08-29T09:36:35.591Z,4.78
2022-08-29T09:41:38.291Z,5.15
2022-08-29T09:46:41.537Z,5.23
2022-08-29T09:51:49.244Z,4.63
2022-08-29T09:57:13.873Z,4.53
2022-08-29T10:02:15.654Z,4.75
2022-08-29T10:07:22.708Z,3.80
2022-08-29T10:12:43.516Z,4.03
2022-08-29T10:18:14.867Z,3.95
2022-08-29T10:23:27.826Z,4.03
2022-08-29T10:28:37.112Z,4.43
2022-08-29T10:34:09.692Z,4.20
2022-08-29T10:39:16.022Z,4.43
2022-08-29T10:45:05.757Z,4.70
2022-08-29T10:50:10.172Z,4.05
2022-08-29T10:55:47.346Z,4.43
2022-08-29T11:01:23.111Z,4.43
2022-08-29T11:06:32.130Z,3.90
2022-08-29T11:11:37.792Z,4.35
2022-08-29T11:16:47.092Z,4.30
2022-08-29T11:22:09.982Z,4.22
2022-08-29T11:27:29.282Z,4.93
2022-08-29T11:32:39.999Z,3.83
2022-08-29T11:38:20.455Z,3.80
2022-08-29T11:43:30.635Z,4.10
2022-08-29T11:48:39.686Z,3.75
2022-08-29T11:53:41.354Z,4.28
2022-08-29T11:58:48.035Z,3.60
2022-08-29T12:03:49.806Z,3.47
2022-08-29T12:09:01.716Z,3.05
2022-08-29T12:14:06.276Z,3.70
2022-08-29T12:19:08.192Z,3.70
2022-08-29T12:24:30.411Z,3.10
2022-08-29T12:29:41.143Z,3.20
2022-08-29T12:35:06.918Z,3.08
2022-08-29T12:40:45.334Z,3.30
2022-08-29T12:45:49.116Z,3.50
2022-08-29T12:50:50.907Z,3.38
2022-08-29T12:56:03.589Z,3.03
2022-08-29T13:01:19.152Z,6.50
2022-08-29T13:06:20.952Z,3.40
2022-08-29T13:11:25.495Z,3.40
2022-08-29T13:16:30.653Z,3.47
2022-08-29T13:21:33.623Z,4.20
2022-08-29T13:26:50.424Z,3.08
2022-08-29T13:32:11.125Z,3.50
2022-08-29T13:37:29.069Z,2.92
2022-08-29T13:42:32.031Z,3.40
2022-08-29T13:47:42.631Z,3.92
2022-08-29T13:52:51.479Z,3.38
2022-08-29T13:57:55.203Z,3.42
2022-08-29T14:02:57.512Z,2.88
2022-08-29T14:07:59.203Z,3.38
2022-08-29T14:13:01.329Z,3.13
2022-08-29T14:18:04.091Z,3.22
2022-08-29T14:23:05.894Z,3.40
2022-08-29T14:28:07.566Z,2.80
2022-08-29T14:33:09.349Z,2.92
2022-08-29T14:38:11.719Z,3.00
2022-08-29T14:43:13.697Z,3.20
2022-08-29T14:48:15.651Z,3.35
2022-08-29T14:53:17.395Z,3.10
2022-08-29T14:58:19.199Z,2.88
2022-08-29T15:03:20.950Z,3.13
2022-08-29T15:08:22.757Z,3.22
2022-08-29T15:13:24.624Z,2.78
2022-08-29T15:19:07.790Z,2.78
2022-08-29T15:23:49.057Z,2.38
2022-08-29T15:28:50.710Z,3.25
2022-08-29T15:33:52.359Z,2.45
2022-08-29T15:38:54.251Z,2.72
2022-08-29T15:43:55.984Z,2.55
2022-08-29T15:48:57.634Z,2.58
2022-08-29T15:53:59.316Z,2.80
2022-08-29T15:59:06.160Z,2.67
2022-08-29T16:04:08.082Z,2.65
2022-08-29T16:09:15.833Z,3.05
2022-08-29T16:14:57.454Z,2.65
2022-08-29T16:19:41.938Z,2.28
2022-08-29T16:24:44.251Z,2.60
2022-08-29T16:29:45.903Z,2.85
2022-08-29T16:34:47.710Z,3.22
2022-08-29T16:39:49.366Z,2.97
2022-08-29T16:44:51.125Z,2.80
2022-08-29T16:49:53.735Z,2.42
2022-08-29T16:54:55.376Z,2.20
2022-08-29T16:59:57.141Z,2.45
2022-08-29T17:04:58.935Z,2.45
2022-08-29T17:10:02.553Z,2.72
2022-08-29T17:15:04.474Z,3.15
2022-08-29T17:20:06.755Z,3.15
2022-08-29T17:25:08.679Z,3.03
2022-08-29T17:30:10.875Z,3.10
2022-08-29T17:35:12.528Z,2.85
2022-08-29T17:40:14.789Z,2.70
2022-08-29T17:45:18.397Z,2.95
2022-08-29T17:50:20.112Z,2.75
2022-08-29T17:55:21.763Z,2.85
2022-08-29T18:00:25.086Z,3.40
2022-08-29T18:05:26.941Z,2.97
2022-08-29T18:10:28.740Z,3.42
2022-08-29T18:15:30.734Z,2.60
2022-08-29T18:20:37.596Z,3.00
2022-08-29T18:25:39.270Z,3.03
2022-08-29T18:30:40.967Z,3.50
2022-08-29T18:35:42.789Z,4.15
2022-08-29T18:40:46.630Z,3.00
2022-08-29T18:45:52.893Z,3.55
2022-08-29T18:50:56.613Z,3.90
2022-08-29T18:56:00.338Z,3.80
2022-08-29T19:01:14.286Z,3.88
2022-08-29T19:06:16.662Z,3.85
2022-08-29T19:11:19.543Z,4.28
2022-08-29T19:16:23.041Z,4.25
2022-08-29T19:21:26.268Z,4.53
2022-08-29T19:26:35.709Z,4.47
2022-08-29T19:31:37.430Z,5.15
2022-08-29T19:36:40.129Z,5.03
2022-08-29T19:41:41.859Z,5.38
2022-08-29T19:46:47.342Z,5.50
2022-08-29T19:51:51.930Z,5.30
2022-08-29T19:56:53.551Z,8.15
2022-08-29T20:01:55.379Z,10.32
2022-08-29T20:07:00.134Z,6.47
2022-08-29T20:12:03.105Z,7.80
2022-08-29T20:17:09.390Z,7.63
2022-08-29T20:22:11.344Z,5.57
2022-08-29T20:27:13.157Z,6.30
2022-08-29T20:32:14.840Z,6.35
2022-08-29T20:37:17.101Z,6.15
2022-08-29T20:42:20.861Z,6.20
2022-08-29T20:47:24.277Z,6.15
2022-08-29T20:52:25.958Z,5.22
2022-08-29T20:57:27.643Z,5.82
2022-08-29T21:02:47.614Z,6.72
2022-08-29T21:07:49.624Z,5.82
2022-08-29T21:12:51.256Z,5.40
2022-08-29T21:17:52.881Z,5.63
2022-08-29T21:22:54.659Z,5.70
2022-08-29T21:27:56.323Z,6.18
2022-08-29T21:32:58.638Z,5.75
2022-08-29T21:38:00.328Z,6.95
2022-08-29T21:43:05.000Z,5.47
2022-08-29T21:48:06.840Z,6.32
2022-08-29T21:53:11.437Z,5.80
2022-08-29T21:58:13.480Z,6.05
2022-08-29T22:03:15.591Z,6.28
2022-08-29T22:08:17.533Z,5.55
2022-08-29T22:13:19.596Z,6.22
2022-08-29T22:18:22.430Z,6.82
2022-08-29T22:23:24.754Z,6.57
2022-08-29T22:28:26.754Z,5.43
2022-08-29T22:33:28.611Z,6.30
2022-08-29T22:38:31.428Z,6.05
2022-08-29T22:43:33.067Z,6.03
2022-08-29T22:48:34.715Z,5.25
2022-08-29T22:53:36.374Z,5.63
2022-08-29T22:58:38.164Z,5.85
2022-08-29T23:03:39.812Z,6.95
2022-08-29T23:08:41.464Z,6.28
2022-08-29T23:13:44.804Z,6.72
2022-08-29T23:18:48.028Z,6.90
2022-08-29T23:23:50.691Z,6.38
2022-08-29T23:28:53.348Z,7.15
2022-08-29T23:33:55.182Z,6.97
2022-08-29T23:38:56.862Z,6.80
2022-08-29T23:43:59.154Z,6.03
2022-08-29T23:49:00.830Z,6.85
2022-08-29T23:54:02.616Z,6.20
2022-08-29T23:59:04.359Z,6.32
